METAR Data
IDs: Format: Raw Decoded Include TAF

Data at: 1203 UTC 16 Sep 2019

LKPR 161200Z 26006KT 220V290 9999 FEW036 19/10 Q1018 NOSIG

TAF LKPR 161100Z 1612/1718 30006KT CAVOK
  BECMG 1614/1616 9000 -RA BKN020
  TEMPO 1616/1704 7000 RA BKN014
  PROB30
  TEMPO 1618/1704 02004KT 4000 RA BR BKN007
  BECMG 1704/1706 9999 BKN033
  TEMPO 1712/1718 29014G24KT SHRA FEW026TCU BKN030